createdAt,value
2024-01-12T00:02:31.407Z,19.0
2024-01-12T00:09:11.556Z,16.55704697986577
2024-01-12T00:12:32.149Z,23.71812080536913
2024-01-12T00:15:53.555Z,21.013422818791945
2024-01-12T00:19:14.274Z,22.187919463087248
2024-01-12T00:22:34.903Z,23.201342281879196
2024-01-12T00:25:56.584Z,29.74496644295302
2024-01-12T00:29:22.555Z,24.201342281879196
2024-01-12T00:32:44.094Z,29.053691275167786
2024-01-12T00:36:04.947Z,25.449664429530202
2024-01-12T00:42:14.421Z,30.87248322147651
2024-01-12T00:45:35.212Z,28.59731543624161
2024-01-12T00:48:55.739Z,27.550335570469798
2024-01-12T00:52:17.430Z,33.73154362416108
2024-01-12T00:55:38.195Z,26.624161073825505
2024-01-12T00:58:59.804Z,27.395973154362416
2024-01-12T01:02:20.515Z,25.221476510067113
2024-01-12T01:06:54.161Z,28.02013422818792
2024-01-12T01:10:14.393Z,27.845637583892618
2024-01-12T01:13:35.081Z,26.315436241610737
2024-01-12T01:19:56.906Z,30.268456375838927
2024-01-12T01:23:17.590Z,25.55704697986577
2024-01-12T01:26:38.524Z,32.939597315436245
2024-01-12T01:29:59.761Z,25.859060402684563
2024-01-12T01:33:20.115Z,28.322147651006713
2024-01-12T01:36:40.937Z,27.44295302013423
2024-01-12T01:40:01.884Z,30.107382550335572
2024-01-12T01:48:46.221Z,28.053691275167786
2024-01-12T01:52:06.657Z,33.46979865771812
2024-01-12T01:55:27.467Z,27.93288590604027
2024-01-12T02:01:54.135Z,27.671140939597315
2024-01-12T02:05:14.828Z,27.563758389261746
2024-01-12T02:10:24.894Z,22.483221476510067
2024-01-12T02:13:46.225Z,28.328859060402685
2024-01-12T02:18:08.524Z,20.711409395973153
2024-01-12T02:21:28.956Z,24.389261744966444
2024-01-12T02:24:50.280Z,22.261744966442954
2024-01-12T02:28:10.675Z,21.40268456375839
2024-01-12T02:31:31.787Z,25.563758389261746
2024-01-12T02:34:54.230Z,30.973154362416107
2024-01-12T02:38:14.340Z,28.25503355704698
2024-01-12T02:41:34.409Z,33.73154362416108
2024-01-12T02:44:56.682Z,35.4496644295302
2024-01-12T02:48:17.106Z,34.70469798657718
2024-01-12T02:51:37.135Z,35.74496644295302
2024-01-12T02:54:58.239Z,30.892617449664428
2024-01-12T02:58:18.538Z,21.523489932885905
2024-01-12T03:01:38.752Z,18.644295302013422
2024-01-12T03:08:43.638Z,13.275167785234899
2024-01-12T03:12:04.458Z,11.389261744966444
2024-01-12T03:18:09.840Z,12.12751677852349
2024-01-12T03:21:30.377Z,10.275167785234899
2024-01-12T03:24:50.872Z,11.429530201342281
2024-01-12T03:28:24.968Z,10.261744966442953
2024-01-12T03:31:46.305Z,13.550335570469798
2024-01-12T03:35:06.585Z,11.020134228187919
2024-01-12T03:38:26.694Z,7.718120805369128
2024-01-12T03:41:47.300Z,11.919463087248323
2024-01-12T03:45:07.930Z,11.476510067114093
2024-01-12T03:48:28.962Z,10.550335570469798
2024-01-12T03:51:50.318Z,13.879194630872483
2024-01-12T03:55:10.494Z,8.241610738255034
2024-01-12T03:58:31.501Z,11.476510067114093
2024-01-12T04:01:52.126Z,11.78523489932886
2024-01-12T04:05:12.920Z,13.973154362416107
2024-01-12T04:08:33.291Z,12.610738255033556
2024-01-12T04:11:54.478Z,8.657718120805368
2024-01-12T04:17:22.593Z,11.859060402684564
2024-01-12T04:20:43.767Z,8.731543624161073
2024-01-12T04:24:04.409Z,18.503355704697988
2024-01-12T04:27:25.087Z,18.261744966442954
2024-01-12T04:31:20.826Z,14.557046979865772
2024-01-12T04:34:41.462Z,16.42953020134228
2024-01-12T04:38:01.902Z,9.986577181208053
2024-01-12T04:41:22.591Z,13.476510067114093
2024-01-12T04:44:43.796Z,15.36241610738255
2024-01-12T04:50:55.838Z,9.275167785234899
2024-01-12T04:54:15.982Z,13.013422818791947
2024-01-12T04:57:36.393Z,12.563758389261745
2024-01-12T05:00:57.225Z,12.630872483221477
2024-01-12T05:04:17.952Z,11.677852348993289
2024-01-12T05:09:44.344Z,14.120805369127517
2024-01-12T05:13:04.968Z,11.10738255033557
2024-01-12T05:16:26.415Z,14.85234899328859
2024-01-12T05:19:46.652Z,10.771812080536913
2024-01-12T05:23:08.104Z,11.906040268456376
2024-01-12T05:26:28.990Z,10.04026845637584
2024-01-12T05:29:50.952Z,11.328859060402685
2024-01-12T05:33:11.763Z,11.395973154362416
2024-01-12T05:37:55.381Z,7.469798657718121
2024-01-12T05:41:15.828Z,9.912751677852349
2024-01-12T05:44:36.827Z,9.234899328859061
2024-01-12T05:47:58.259Z,9.302013422818792
2024-01-12T05:51:19.209Z,7.912751677852349
2024-01-12T05:54:40.129Z,9.48993288590604
2024-01-12T05:58:00.775Z,8.134228187919463
2024-01-12T06:01:21.619Z,3.651006711409396
2024-01-12T06:04:42.057Z,6.6375838926174495
2024-01-12T06:08:02.433Z,4.953020134228188
2024-01-12T06:11:22.765Z,6.093959731543624
2024-01-12T06:14:43.486Z,2.959731543624161
2024-01-12T06:18:04.115Z,5.778523489932886
2024-01-12T06:22:49.417Z,9.335570469798657
2024-01-12T06:26:09.106Z,12.40268456375839
2024-01-12T06:29:29.090Z,9.208053691275168
2024-01-12T06:34:04.945Z,4.261744966442953
2024-01-12T06:37:25.545Z,4.12751677852349
2024-01-12T06:42:41.360Z,8.073825503355705
2024-01-12T06:46:02.252Z,9.48993288590604
2024-01-12T06:49:22.239Z,5.724832214765101
2024-01-12T06:52:43.453Z,7.510067114093959
2024-01-12T06:56:03.537Z,9.348993288590604
2024-01-12T07:01:18.533Z,3.7315436241610738
2024-01-12T07:04:39.173Z,6.704697986577181
2024-01-12T07:08:00.437Z,4.543624161073826
2024-01-12T07:14:35.768Z,8.38255033557047
2024-01-12T07:17:57.264Z,6.791946308724833
2024-01-12T07:21:18.256Z,10.791946308724832
2024-01-12T07:24:38.960Z,10.496644295302014
2024-01-12T07:27:59.755Z,10.644295302013424
2024-01-12T07:31:20.568Z,11.557046979865772
2024-01-12T07:34:41.837Z,8.624161073825503
2024-01-12T07:38:01.971Z,10.496644295302014
2024-01-12T07:41:22.609Z,12.711409395973154
2024-01-12T07:44:43.265Z,15.013422818791947
2024-01-12T07:48:04.129Z,17.697986577181208
2024-01-12T07:51:24.251Z,15.832214765100671
2024-01-12T07:57:34.634Z,15.100671140939598
2024-01-12T08:00:56.061Z,15.979865771812081
2024-01-12T08:05:39.164Z,17.355704697986578
2024-01-12T08:09:00.196Z,13.751677852348994
2024-01-12T08:15:25.643Z,14.281879194630873
2024-01-12T08:18:46.865Z,14.456375838926174
2024-01-12T08:22:13.299Z,14.328859060402685
2024-01-12T08:26:02.605Z,20.42281879194631
2024-01-12T08:29:23.912Z,14.483221476510067
2024-01-12T08:32:45.826Z,16.946308724832214
2024-01-12T08:36:06.066Z,15.644295302013424
2024-01-12T08:39:26.498Z,16.13422818791946
2024-01-12T08:42:47.734Z,13.818791946308725
2024-01-12T08:46:08.309Z,15.0
2024-01-12T08:49:29.344Z,13.630872483221477
2024-01-12T08:52:51.382Z,14.120805369127517
2024-01-12T08:56:12.603Z,10.523489932885907
2024-01-12T08:59:35.087Z,12.275167785234899
2024-01-12T09:02:54.853Z,13.201342281879194
2024-01-12T09:06:16.112Z,8.939597315436242
2024-01-12T09:09:37.053Z,9.838926174496644
2024-01-12T09:12:58.044Z,11.724832214765101
2024-01-12T09:16:18.587Z,12.187919463087248
2024-01-12T09:22:33.934Z,16.651006711409394
2024-01-12T09:25:55.624Z,13.463087248322148
2024-01-12T09:29:17.135Z,14.026845637583893
2024-01-12T09:32:41.996Z,13.234899328859061
2024-01-12T09:36:06.499Z,10.919463087248323
2024-01-12T09:39:28.127Z,14.114093959731544
2024-01-12T09:42:54.487Z,16.22818791946309
2024-01-12T09:46:14.323Z,16.93959731543624
2024-01-12T09:49:34.366Z,17.409395973154364
2024-01-12T09:52:55.530Z,19.120805369127517
2024-01-12T09:58:44.356Z,15.483221476510067
2024-01-12T10:02:06.247Z,15.973154362416107
2024-01-12T10:05:26.819Z,12.167785234899329
2024-01-12T10:11:21.584Z,17.731543624161073
2024-01-12T10:14:42.453Z,16.83221476510067
2024-01-12T10:18:02.669Z,18.946308724832214
2024-01-12T10:21:24.181Z,12.120805369127517
2024-01-12T10:24:45.101Z,16.57718120805369
2024-01-12T10:28:05.486Z,16.973154362416107
2024-01-12T10:31:26.603Z,22.187919463087248
2024-01-12T10:34:47.854Z,16.563758389261746
2024-01-12T10:38:08.104Z,15.74496644295302
2024-01-12T10:41:28.941Z,14.006711409395972
2024-01-12T10:44:49.420Z,13.906040268456376
2024-01-12T10:48:10.200Z,13.604026845637584
2024-01-12T10:53:37.985Z,20.25503355704698
2024-01-12T10:58:20.110Z,17.97986577181208
2024-01-12T11:01:41.587Z,17.966442953020135
2024-01-12T11:05:02.857Z,21.44295302013423
2024-01-12T11:08:23.532Z,18.85234899328859
2024-01-12T11:11:44.410Z,18.348993288590606
2024-01-12T11:15:04.853Z,17.59731543624161
2024-01-12T11:18:25.478Z,14.95973154362416
2024-01-12T11:24:30.510Z,14.838926174496644
2024-01-12T11:27:51.520Z,13.228187919463087
2024-01-12T11:31:12.415Z,11.899328859060402
2024-01-12T11:37:25.368Z,13.140939597315436
2024-01-12T11:40:46.398Z,11.523489932885907
2024-01-12T11:44:06.678Z,8.671140939597315
2024-01-12T11:47:27.327Z,7.906040268456376
2024-01-12T11:50:47.892Z,8.013422818791947
2024-01-12T11:54:08.056Z,9.503355704697986
2024-01-12T11:57:28.482Z,9.885906040268456
2024-01-12T12:00:49.506Z,7.040268456375839
2024-01-12T12:04:10.692Z,8.06711409395973
2024-01-12T12:07:31.562Z,5.167785234899329
2024-01-12T12:10:52.741Z,7.147651006711409
2024-01-12T12:14:12.810Z,8.61744966442953
2024-01-12T12:20:48.291Z,6.577181208053691
2024-01-12T12:24:12.349Z,8.187919463087248
2024-01-12T12:27:33.469Z,8.355704697986576
2024-01-12T12:32:08.820Z,7.228187919463087
2024-01-12T12:35:29.682Z,9.74496644295302
2024-01-12T12:38:51.076Z,6.879194630872483
2024-01-12T12:45:48.544Z,10.476510067114093
2024-01-12T12:49:09.509Z,11.020134228187919
2024-01-12T12:52:30.031Z,11.006711409395972
2024-01-12T12:55:51.260Z,6.697986577181208
2024-01-12T12:59:12.158Z,7.483221476510067
2024-01-12T13:02:32.559Z,7.261744966442953
2024-01-12T13:05:53.690Z,8.328859060402685
2024-01-12T13:09:13.658Z,8.174496644295303
2024-01-12T13:14:54.924Z,6.879194630872483
2024-01-12T13:18:15.369Z,7.221476510067114
2024-01-12T13:21:35.935Z,6.275167785234899
2024-01-12T13:24:57.467Z,6.805369127516778
2024-01-12T13:28:17.869Z,7.006711409395973
2024-01-12T13:31:39.133Z,7.516778523489933
2024-01-12T13:34:59.895Z,9.06711409395973
2024-01-12T13:41:33.029Z,7.570469798657718
2024-01-12T13:44:53.862Z,10.979865771812081
2024-01-12T13:50:26.788Z,11.187919463087248
2024-01-12T13:53:49.262Z,9.838926174496644
2024-01-12T13:57:10.351Z,12.765100671140939
2024-01-12T14:00:30.856Z,48.241610738255034
2024-01-12T14:03:52.067Z,34.14093959731544
2024-01-12T14:07:12.925Z,21.778523489932887
2024-01-12T14:11:57.607Z,19.97986577181208
2024-01-12T14:15:17.689Z,21.026845637583893
2024-01-12T14:18:38.587Z,14.006711409395972
2024-01-12T14:25:12.377Z,9.355704697986576
2024-01-12T14:28:35.547Z,15.778523489932885
2024-01-12T14:34:42.996Z,12.946308724832214
2024-01-12T14:38:03.165Z,12.89261744966443
2024-01-12T14:45:04.568Z,13.140939597315436
2024-01-12T14:51:16.293Z,13.899328859060402
2024-01-12T14:54:37.877Z,15.167785234899329
2024-01-12T15:00:11.536Z,11.879194630872483
2024-01-12T15:03:32.448Z,11.953020134228188
2024-01-12T15:06:53.209Z,10.40268456375839
2024-01-12T15:10:13.199Z,10.134228187919463
2024-01-12T15:13:33.839Z,10.154362416107382
2024-01-12T15:16:54.904Z,8.409395973154362
2024-01-12T15:20:15.222Z,12.40268456375839
2024-01-12T15:23:35.550Z,33.63758389261745
2024-01-12T15:27:01.413Z,32.22818791946309
2024-01-12T15:30:21.692Z,15.322147651006711
2024-01-12T15:33:42.515Z,24.83221476510067
2024-01-12T15:37:02.917Z,29.161073825503355
2024-01-12T15:40:23.525Z,9.85234899328859
2024-01-12T15:43:43.699Z,8.778523489932885
2024-01-12T15:47:04.407Z,8.758389261744966
2024-01-12T15:50:24.930Z,7.268456375838926
2024-01-12T15:53:45.626Z,8.369127516778523
2024-01-12T15:57:07.401Z,7.879194630872483
2024-01-12T16:00:28.049Z,10.046979865771812
2024-01-12T16:03:48.775Z,9.590604026845638
2024-01-12T16:07:09.309Z,8.85234899328859
2024-01-12T16:10:29.630Z,8.711409395973154
2024-01-12T16:13:50.949Z,6.899328859060403
2024-01-12T16:17:11.245Z,7.322147651006712
2024-01-12T16:20:31.456Z,6.785234899328859
2024-01-12T16:23:52.006Z,7.0134228187919465
2024-01-12T16:27:12.503Z,8.154362416107382
2024-01-12T16:30:32.782Z,6.590604026845638
2024-01-12T16:33:53.745Z,12.946308724832214
2024-01-12T16:37:14.834Z,10.187919463087248
2024-01-12T16:40:35.118Z,9.181208053691275
2024-01-12T16:43:56.691Z,11.40268456375839
2024-01-12T16:47:18.702Z,9.25503355704698
2024-01-12T16:50:39.043Z,7.120805369127517
2024-01-12T16:53:59.903Z,7.671140939597316
2024-01-12T16:57:20.087Z,6.5369127516778525
2024-01-12T17:02:46.287Z,6.114093959731544
2024-01-12T17:06:06.850Z,7.315436241610739
2024-01-12T17:13:23.313Z,9.805369127516778
2024-01-12T17:18:33.019Z,8.973154362416107
2024-01-12T17:21:55.018Z,8.624161073825503
2024-01-12T17:25:15.462Z,7.651006711409396
2024-01-12T17:28:35.412Z,9.550335570469798
2024-01-12T17:31:56.376Z,8.422818791946309
2024-01-12T17:35:16.641Z,6.375838926174497
2024-01-12T17:38:36.567Z,10.026845637583893
2024-01-12T17:41:57.869Z,13.51006711409396
2024-01-12T17:45:59.090Z,10.85234899328859
2024-01-12T17:49:19.473Z,6.1879194630872485
2024-01-12T17:52:41.271Z,8.422818791946309
2024-01-12T17:57:03.728Z,7.818791946308725
2024-01-12T18:00:24.052Z,7.97986577181208
2024-01-12T18:03:45.073Z,5.228187919463087
2024-01-12T18:07:06.507Z,5.208053691275167
2024-01-12T18:10:26.997Z,5.046979865771812
2024-01-12T18:16:34.717Z,10.664429530201343
2024-01-12T18:20:17.063Z,25.677852348993287
2024-01-12T18:23:37.665Z,14.436241610738255
2024-01-12T18:26:59.066Z,10.060402684563758
2024-01-12T18:30:20.253Z,12.442953020134228
2024-01-12T18:36:40.447Z,6.919463087248322
2024-01-12T18:40:01.503Z,7.436241610738255
2024-01-12T18:43:22.484Z,4.261744966442953
2024-01-12T18:46:43.088Z,6.033557046979865
2024-01-12T18:50:04.422Z,7.939597315436242
2024-01-12T18:53:25.201Z,8.543624161073826
2024-01-12T18:56:46.270Z,8.577181208053691
2024-01-12T19:00:06.917Z,7.993288590604027
2024-01-12T19:03:29.473Z,6.429530201342282
2024-01-12T19:06:50.229Z,8.456375838926174
2024-01-12T19:10:10.427Z,7.684563758389261
2024-01-12T19:13:30.486Z,6.953020134228188
2024-01-12T19:17:48.286Z,12.053691275167786
2024-01-12T19:21:08.711Z,10.120805369127517
2024-01-12T19:24:29.404Z,6.906040268456376
2024-01-12T19:27:50.419Z,6.926174496644295
2024-01-12T19:31:10.977Z,6.194630872483222
2024-01-12T19:34:31.811Z,5.624161073825503
2024-01-12T19:37:52.533Z,6.23489932885906
2024-01-12T19:41:13.017Z,7.348993288590604
2024-01-12T19:44:33.371Z,8.409395973154362
2024-01-12T19:47:53.941Z,5.241610738255034
2024-01-12T19:51:14.827Z,6.469798657718121
2024-01-12T19:54:35.526Z,5.422818791946309
2024-01-12T19:57:57.991Z,4.409395973154362
2024-01-12T20:01:18.863Z,8.691275167785236
2024-01-12T20:04:46.775Z,8.718120805369127
2024-01-12T20:08:08.498Z,8.550335570469798
2024-01-12T20:11:29.851Z,6.409395973154362
2024-01-12T20:14:52.561Z,5.422818791946309
2024-01-12T20:18:13.671Z,6.375838926174497
2024-01-12T20:21:35.204Z,8.375838926174497
2024-01-12T20:24:57.044Z,6.275167785234899
2024-01-12T20:28:18.072Z,4.953020134228188
2024-01-12T20:32:35.078Z,5.879194630872483
2024-01-12T20:35:56.614Z,4.724832214765101
2024-01-12T20:40:39.375Z,6.8120805369127515
2024-01-12T20:44:00.820Z,3.476510067114094
2024-01-12T20:47:21.142Z,2.778523489932886
2024-01-12T20:50:42.294Z,1.8791946308724832
2024-01-12T20:54:02.879Z,2.7651006711409396
2024-01-12T20:57:23.951Z,4.6375838926174495
2024-01-12T21:00:44.708Z,3.597315436241611
2024-01-12T21:04:06.006Z,3.214765100671141
2024-01-12T21:07:27.319Z,3.751677852348993
2024-01-12T21:10:48.698Z,2.7315436241610738
2024-01-12T21:14:09.857Z,2.9395973154362416
2024-01-12T21:17:30.822Z,2.174496644295302
2024-01-12T21:26:56.659Z,2.9932885906040267
2024-01-12T21:30:17.885Z,2.476510067114094
2024-01-12T21:35:47.750Z,2.0134228187919465
2024-01-12T21:39:08.862Z,0.5906040268456376
2024-01-12T21:42:34.674Z,2.0201342281879193
2024-01-12T21:45:55.684Z,2.1677852348993287
2024-01-12T21:49:16.668Z,1.563758389261745
2024-01-12T21:52:37.855Z,2.4966442953020134
2024-01-12T21:58:56.530Z,1.167785234899329
2024-01-12T22:02:17.440Z,2.5436241610738257
2024-01-12T22:05:38.036Z,0.6845637583892618
2024-01-12T22:08:59.373Z,1.691275167785235
2024-01-12T22:15:16.122Z,1.2483221476510067
2024-01-12T22:18:36.883Z,2.12751677852349
2024-01-12T22:23:55.330Z,1.436241610738255
2024-01-12T22:27:26.856Z,2.7114093959731544
